Time;durP1;ratioP1;P1;durP2;ratioP2;P2;SDS_P1;SDS_P2;PMS_P1;PMS_P2;Temp;Humidity;BMP_temperature;BMP_pressure;BME280_temperature;BME280_humidity;BME280_pressure;Samples;Min_cycle;Max_cycle;Signal;HPM_P1;HPM_P2
2020/12/05 00:02:18;;;;;;;9.27;1.90;;;9.10;98.00;;;;;;5056706;28;20039;-72
2020/12/05 00:04:44;;;;;;;11.85;2.03;;;9.20;98.00;;;;;;5056551;28;20108;-72
2020/12/05 00:07:10;;;;;;;7.97;1.65;;;9.20;97.80;;;;;;5056523;28;20029;-72
2020/12/05 00:09:36;;;;;;;10.93;1.98;;;9.20;97.70;;;;;;5056720;28;20036;-72
2020/12/05 00:12:05;;;;;;;13.00;2.05;;;9.20;97.80;;;;;;5060571;28;20083;-72
2020/12/05 00:14:31;;;;;;;10.63;2.67;;;9.10;97.80;;;;;;5060589;28;20036;-72
2020/12/05 00:17:00;;;;;;;13.13;2.22;;;9.20;98.00;;;;;;5059225;28;20035;-72
2020/12/05 00:19:25;;;;;;;13.98;2.28;;;9.20;97.90;;;;;;5059985;28;20049;-72
2020/12/05 00:21:55;;;;;;;12.13;2.25;;;9.20;97.80;;;;;;5060534;28;20294;-72
2020/12/05 00:24:21;;;;;;;12.30;2.42;;;9.20;97.80;;;;;;5060565;28;20049;-72
2020/12/05 00:26:49;;;;;;;14.20;2.30;;;9.20;97.80;;;;;;5060430;28;20017;-72
2020/12/05 00:29:15;;;;;;;23.85;2.42;;;9.20;98.00;;;;;;5060443;28;20024;-72
2020/12/05 00:31:40;;;;;;;15.32;2.00;;;9.10;98.00;;;;;;5060587;28;20028;-72
2020/12/05 00:34:06;;;;;;;13.60;2.05;;;9.20;98.00;;;;;;5060266;28;20078;-72
2020/12/05 00:36:32;;;;;;;11.75;2.30;;;9.20;98.00;;;;;;5060444;28;20112;-72
2020/12/05 00:38:57;;;;;;;17.30;1.90;;;9.20;98.00;;;;;;5060214;28;20028;-72
2020/12/05 00:41:26;;;;;;;15.65;2.10;;;9.20;98.00;;;;;;5060302;28;20024;-72
2020/12/05 00:43:52;;;;;;;19.80;1.90;;;9.20;98.00;;;;;;5060074;28;20021;-72
2020/12/05 00:46:20;;;;;;;29.27;2.08;;;9.20;98.00;;;;;;5060362;28;20278;-72
2020/12/05 00:48:46;;;;;;;19.30;2.72;;;9.20;98.00;;;;;;5059986;28;20025;-72
2020/12/05 00:51:12;;;;;;;14.75;2.33;;;9.20;98.00;;;;;;5042321;28;20466;-72
2020/12/05 00:53:38;;;;;;;12.10;1.45;;;9.20;98.00;;;;;;5059896;28;20056;-72
2020/12/05 00:56:04;;;;;;;16.48;1.98;;;9.20;98.00;;;;;;5060436;28;20036;-72
2020/12/05 00:58:34;;;;;;;8.63;1.50;;;9.10;98.00;;;;;;5042179;28;20025;-72
2020/12/05 01:01:03;;;;;;;14.70;2.00;;;9.20;98.00;;;;;;5059860;28;20036;-72
2020/12/05 01:03:31;;;;;;;8.48;1.77;;;9.20;98.00;;;;;;5059667;28;20104;-72
2020/12/05 01:05:57;;;;;;;8.75;1.70;;;9.20;98.00;;;;;;5058676;28;20025;-72
2020/12/05 01:08:25;;;;;;;13.43;2.75;;;9.20;98.00;;;;;;5059683;28;20009;-72
2020/12/05 01:10:51;;;;;;;13.60;2.45;;;9.20;98.00;;;;;;5059928;28;20064;-72
2020/12/05 01:13:19;;;;;;;23.63;2.15;;;9.30;98.00;;;;;;5059584;28;20072;-72
2020/12/05 01:15:45;;;;;;;9.27;1.60;;;9.20;98.00;;;;;;5059395;28;20033;-72
2020/12/05 01:18:10;;;;;;;8.55;1.40;;;9.20;98.00;;;;;;5059275;28;20044;-72
2020/12/05 01:20:39;;;;;;;11.20;1.63;;;9.20;98.00;;;;;;5058332;28;20037;-72
2020/12/05 01:23:04;;;;;;;10.27;1.50;;;9.20;98.00;;;;;;5058708;28;20110;-72
2020/12/05 01:25:30;;;;;;;14.23;1.90;;;9.20;98.00;;;;;;5059355;28;20432;-72
2020/12/05 01:27:56;;;;;;;10.10;2.15;;;9.10;98.00;;;;;;5059332;28;20017;-72
2020/12/05 01:30:24;;;;;;;9.40;1.85;;;9.10;98.00;;;;;;5059443;28;20405;-72
2020/12/05 01:32:55;;;;;;;10.30;1.50;;;9.00;98.00;;;;;;5059197;28;20029;-75
2020/12/05 01:35:21;;;;;;;27.20;2.25;;;9.00;98.00;;;;;;5059203;28;20328;-73
2020/12/05 01:37:49;;;;;;;20.50;1.95;;;9.00;98.00;;;;;;5059115;28;20027;-73
2020/12/05 01:40:15;;;;;;;153.43;12.43;;;9.00;98.00;;;;;;5059072;28;20029;-73
2020/12/05 01:42:40;;;;;;;38.90;2.63;;;9.00;98.00;;;;;;5059025;28;20294;-73
2020/12/05 01:45:10;;;;;;;178.45;11.30;;;9.00;98.00;;;;;;5058952;28;20107;-73
2020/12/05 01:47:35;;;;;;;245.15;16.83;;;9.00;98.00;;;;;;5058905;28;20021;-73
2020/12/05 01:50:01;;;;;;;381.38;26.30;;;9.00;98.00;;;;;;5059196;28;20033;-73
2020/12/05 01:52:27;;;;;;;472.00;31.52;;;8.90;98.00;;;;;;5058866;28;20063;-73
2020/12/05 01:54:53;;;;;;;427.98;31.55;;;8.90;98.00;;;;;;5041030;28;20119;-73
2020/12/05 01:57:20;;;;;;;11.93;1.40;;;8.90;98.00;;;;;;5058723;28;20116;-73
2020/12/05 01:59:46;;;;;;;272.95;15.65;;;8.90;98.00;;;;;;5057631;28;20082;-73
2020/12/05 02:02:12;;;;;;;170.52;13.48;;;8.80;98.00;;;;;;5058655;28;20029;-72
2020/12/05 02:04:55;;;;;;;131.30;9.48;;;8.80;98.00;;;;;;5058583;28;20082;-72
2020/12/05 02:07:37;;;;;;;709.63;53.38;;;8.80;98.00;;;;;;5057516;28;20079;-72
2020/12/05 02:10:09;;;;;;;815.08;50.55;;;8.80;98.00;;;;;;5058481;28;20029;-72
2020/12/05 02:12:43;;;;;;;589.80;33.13;;;8.80;98.00;;;;;;5058618;28;20021;-72
2020/12/05 02:15:30;;;;;;;8.68;1.58;;;8.80;98.00;;;;;;5058624;28;20033;-72
2020/12/05 02:18:07;;;;;;;630.78;40.63;;;8.80;98.00;;;;;;5058234;28;20464;-72
2020/12/05 02:20:35;;;;;;;700.40;52.10;;;8.70;98.00;;;;;;5058241;28;20029;-72
2020/12/05 02:23:06;;;;;;;750.83;43.40;;;8.70;98.00;;;;;;5058377;28;20021;-73
2020/12/05 02:25:32;;;;;;;610.42;37.88;;;8.70;98.00;;;;;;5057125;28;20029;-73
2020/12/05 02:28:02;;;;;;;634.47;42.90;;;8.70;98.00;;;;;;5058282;28;20017;-73
2020/12/05 02:30:32;;;;;;;305.58;18.67;;;8.70;98.00;;;;;;5058280;28;20070;-73
2020/12/05 02:32:59;;;;;;;44.80;3.78;;;8.70;98.00;;;;;;5057923;28;20025;-73
2020/12/05 02:35:25;;;;;;;26.08;2.35;;;8.80;98.00;;;;;;5057263;28;20032;-73
2020/12/05 02:38:28;;;;;;;23.77;1.95;;;8.80;98.00;;;;;;5057962;28;20021;-73
2020/12/05 02:40:54;;;;;;;18.10;2.78;;;8.90;98.00;;;;;;4986887;28;20039;-74
2020/12/05 02:43:19;;;;;;;19.05;1.30;;;8.90;98.00;;;;;;5057925;28;20025;-74
2020/12/05 02:45:45;;;;;;;13.35;1.92;;;8.90;98.00;;;;;;5057947;28;20060;-74
2020/12/05 02:48:11;;;;;;;10.10;1.23;;;8.90;98.00;;;;;;5057768;28;20325;-74
2020/12/05 02:50:37;;;;;;;18.77;1.48;;;8.90;98.00;;;;;;5058199;28;20112;-74
2020/12/05 02:53:04;;;;;;;13.02;1.60;;;8.90;98.00;;;;;;5057699;28;20017;-74
2020/12/05 02:55:30;;;;;;;13.55;1.73;;;8.90;98.00;;;;;;5057608;28;20033;-73
2020/12/05 02:57:55;;;;;;;14.27;1.85;;;8.90;98.00;;;;;;5039881;28;20028;-74
2020/12/05 03:00:22;;;;;;;11.32;1.75;;;9.00;98.00;;;;;;5057482;28;20029;-73
2020/12/05 03:02:47;;;;;;;14.10;1.50;;;9.00;98.00;;;;;;5057218;28;20021;-73
2020/12/05 03:05:13;;;;;;;11.80;1.40;;;9.00;98.00;;;;;;5057424;28;20100;-73
2020/12/05 03:07:39;;;;;;;15.52;1.10;;;9.00;98.00;;;;;;5057402;28;20029;-74
2020/12/05 03:10:07;;;;;;;6.45;1.20;;;9.00;98.00;;;;;;5039781;28;20119;-74
2020/12/05 03:12:33;;;;;;;16.45;1.35;;;9.00;98.00;;;;;;5057438;28;20021;-74
2020/12/05 03:14:59;;;;;;;15.27;1.75;;;9.00;98.00;;;;;;5057310;28;20029;-74
2020/12/05 03:17:24;;;;;;;9.23;1.55;;;9.00;98.00;;;;;;5057226;28;20087;-74
2020/12/05 03:19:50;;;;;;;14.65;1.65;;;9.10;98.00;;;;;;5056125;28;20032;-74
2020/12/05 03:22:16;;;;;;;11.52;1.70;;;9.10;98.00;;;;;;5057098;28;20041;-73
2020/12/05 03:24:42;;;;;;;15.45;1.80;;;9.00;98.00;;;;;;5057254;28;20021;-74
2020/12/05 03:27:08;;;;;;;11.73;1.15;;;8.90;98.00;;;;;;5057116;28;20057;-74
2020/12/05 03:29:33;;;;;;;11.75;1.40;;;8.90;98.00;;;;;;5057563;28;20021;-73
2020/12/05 03:34:25;;;;;;;7.45;1.58;;;8.90;98.00;;;;;;5057183;28;20035;-73
2020/12/05 03:36:50;;;;;;;11.30;1.73;;;8.90;98.00;;;;;;5056955;28;20025;-72
2020/12/05 03:39:16;;;;;;;6.93;1.42;;;8.90;98.00;;;;;;5057070;28;20017;-72
2020/12/05 03:41:42;;;;;;;5.95;1.58;;;8.90;98.00;;;;;;5056786;28;20329;-73
2020/12/05 03:44:08;;;;;;;8.40;1.42;;;8.90;98.00;;;;;;5056762;28;20020;-73
2020/12/05 03:46:36;;;;;;;12.68;1.48;;;8.90;98.00;;;;;;5056428;28;20397;-73
2020/12/05 03:49:03;;;;;;;4.25;1.20;;;8.90;98.00;;;;;;5056736;28;20151;-73
2020/12/05 03:51:29;;;;;;;17.00;1.65;;;8.90;98.00;;;;;;5056814;28;20100;-73
2020/12/05 03:53:54;;;;;;;271.65;17.60;;;8.90;98.00;;;;;;5056641;28;20049;-73
2020/12/05 03:56:20;;;;;;;120.20;9.43;;;8.90;98.00;;;;;;5056613;28;20467;-73
2020/12/05 03:58:46;;;;;;;443.60;30.50;;;8.80;98.00;;;;;;5055630;28;20071;-73
2020/12/05 04:01:12;;;;;;;16.58;1.70;;;8.80;98.00;;;;;;5056581;28;20372;-73
2020/12/05 04:03:38;;;;;;;331.45;20.13;;;8.80;98.00;;;;;;5056488;28;20021;-73
2020/12/05 04:06:04;;;;;;;435.95;28.77;;;8.80;98.00;;;;;;5056933;28;20053;-73
2020/12/05 04:08:29;;;;;;;637.38;37.92;;;8.70;98.00;;;;;;5056501;28;20075;-73
2020/12/05 04:10:56;;;;;;;436.15;24.98;;;8.70;98.00;;;;;;5056574;28;20103;-73
2020/12/05 04:13:22;;;;;;;580.35;36.30;;;8.70;98.00;;;;;;5056459;28;20032;-73
2020/12/05 04:15:48;;;;;;;141.85;10.15;;;8.70;98.00;;;;;;5056385;28;20112;-73
2020/12/05 04:18:15;;;;;;;922.40;53.97;;;8.70;98.00;;;;;;5056232;28;20128;-73
2020/12/05 04:20:42;;;;;;;826.13;47.80;;;8.70;98.00;;;;;;5056343;28;20440;-73
2020/12/05 04:23:08;;;;;;;621.85;36.55;;;8.70;98.00;;;;;;5056386;28;20021;-73
2020/12/05 04:25:33;;;;;;;543.25;35.13;;;8.70;98.00;;;;;;5055284;28;20032;-73
2020/12/05 04:27:59;;;;;;;371.92;30.90;;;8.70;98.00;;;;;;5056419;28;20298;-73
2020/12/05 04:30:27;;;;;;;15.32;1.95;;;8.60;98.00;;;;;;5056372;28;20028;-73
2020/12/05 04:32:55;;;;;;;8.68;1.58;;;8.60;98.00;;;;;;5056288;28;20029;-73
2020/12/05 04:35:23;;;;;;;7.85;1.50;;;8.60;98.00;;;;;;5056253;28;20056;-73
2020/12/05 04:37:49;;;;;;;9.25;1.38;;;8.60;98.00;;;;;;5056246;28;20025;-73
2020/12/05 04:40:14;;;;;;;11.55;1.38;;;8.60;98.00;;;;;;5056241;28;20033;-73
2020/12/05 04:42:50;;;;;;;16.83;1.58;;;8.60;98.00;;;;;;5056202;28;20024;-73
2020/12/05 04:45:16;;;;;;;11.30;1.10;;;8.60;98.00;;;;;;5056312;28;20051;-73
2020/12/05 04:47:43;;;;;;;15.55;1.33;;;8.50;98.00;;;;;;5056152;28;20107;-73
2020/12/05 04:50:10;;;;;;;11.82;1.55;;;8.60;98.00;;;;;;5056184;28;20367;-72
2020/12/05 04:52:39;;;;;;;9.18;1.48;;;8.50;98.00;;;;;;5056130;28;20029;-72
2020/12/05 04:55:05;;;;;;;14.63;1.45;;;8.40;98.00;;;;;;5056010;28;20032;-72
2020/12/05 04:57:39;;;;;;;5.72;1.20;;;8.40;98.00;;;;;;5057367;28;20071;-72
2020/12/05 05:00:07;;;;;;;5.43;1.00;;;8.40;98.00;;;;;;5060020;28;20025;-72
2020/12/05 05:02:41;;;;;;;6.40;1.23;;;8.40;98.00;;;;;;5059760;28;20108;-72
2020/12/05 05:05:13;;;;;;;8.98;1.20;;;8.40;98.00;;;;;;5059772;28;20025;-72
2020/12/05 05:07:48;;;;;;;6.45;1.15;;;8.30;98.00;;;;;;5059958;28;20380;-72
2020/12/05 05:10:26;;;;;;;8.32;1.10;;;8.30;98.00;;;;;;5059783;28;20040;-72
2020/12/05 05:13:12;;;;;;;6.57;1.02;;;8.30;98.00;;;;;;5059742;28;20028;-72
2020/12/05 05:15:42;;;;;;;10.98;1.48;;;8.30;98.00;;;;;;5059625;28;20304;-72
2020/12/05 05:18:09;;;;;;;8.00;1.10;;;8.40;98.00;;;;;;5059434;28;20045;-72
2020/12/05 05:20:47;;;;;;;5.88;1.30;;;8.50;98.00;;;;;;5059423;28;20409;-72
2020/12/05 05:23:17;;;;;;;6.82;1.27;;;8.60;98.00;;;;;;5059428;28;20021;-72
2020/12/05 05:26:00;;;;;;;6.45;1.45;;;8.70;98.00;;;;;;5059289;28;20056;-72
2020/12/05 05:28:33;;;;;;;10.57;2.20;;;8.80;98.00;;;;;;5059256;28;20483;-72
2020/12/05 05:31:24;;;;;;;6.70;0.95;;;8.90;98.00;;;;;;5059306;28;20302;-72
2020/12/05 05:33:55;;;;;;;6.82;1.00;;;8.90;98.00;;;;;;5059361;28;20032;-72
2020/12/05 05:36:30;;;;;;;14.88;1.30;;;8.90;98.00;;;;;;5059179;28;20029;-72
2020/12/05 05:39:09;;;;;;;11.90;1.08;;;9.00;98.00;;;;;;5059348;28;20024;-73
2020/12/05 05:41:39;;;;;;;11.48;1.33;;;9.10;98.00;;;;;;5059522;28;20056;-73
2020/12/05 05:44:11;;;;;;;7.25;1.17;;;9.00;98.00;;;;;;5059483;28;20059;-73
2020/12/05 05:46:42;;;;;;;10.77;1.63;;;9.10;98.00;;;;;;5059526;28;20387;-73
2020/12/05 05:49:10;;;;;;;13.02;1.70;;;9.10;98.00;;;;;;5058995;28;20021;-73
2020/12/05 05:51:38;;;;;;;8.98;1.67;;;9.00;98.00;;;;;;5059108;28;20421;-73
2020/12/05 05:54:15;;;;;;;12.77;1.48;;;9.10;98.00;;;;;;5057744;28;20033;-73
2020/12/05 05:56:53;;;;;;;11.75;1.50;;;9.10;98.00;;;;;;5059218;28;20029;-73
2020/12/05 05:59:20;;;;;;;10.45;1.42;;;9.00;98.00;;;;;;5058832;28;20098;-73
2020/12/05 06:01:50;;;;;;;23.90;1.83;;;9.00;98.00;;;;;;5058626;28;20033;-73
2020/12/05 06:04:42;;;;;;;18.58;1.73;;;9.00;98.00;;;;;;5058597;28;20021;-73
2020/12/05 06:07:18;;;;;;;90.82;6.93;;;9.00;98.00;;;;;;5058669;28;20021;-73
2020/12/05 06:09:47;;;;;;;660.33;50.03;;;9.00;98.00;;;;;;5058667;28;20024;-73
2020/12/05 06:12:19;;;;;;;594.92;45.33;;;9.00;98.00;;;;;;5058465;28;20662;-73
2020/12/05 06:14:45;;;;;;;17.50;1.45;;;9.00;98.00;;;;;;5058488;28;20372;-72
2020/12/05 06:24:08;;;;;;;13.15;1.40;;;9.10;98.00;;;;;;5056396;28;20099;-72
2020/12/05 06:27:09;;;;;;;116.07;8.45;;;9.10;98.00;;;;;;5058454;28;20087;-73
2020/12/05 06:29:39;;;;;;;14.45;1.52;;;9.10;98.00;;;;;;5058698;28;20021;-73
2020/12/05 06:32:05;;;;;;;13.32;1.52;;;9.00;98.00;;;;;;5058105;28;20029;-72
2020/12/05 06:34:40;;;;;;;24.25;1.75;;;9.00;98.00;;;;;;5057997;28;20041;-72
2020/12/05 06:37:11;;;;;;;12.90;1.60;;;9.00;98.00;;;;;;5058232;28;20480;-72
2020/12/05 06:39:37;;;;;;;11.35;1.70;;;8.90;98.00;;;;;;5057962;28;20022;-72
2020/12/05 06:42:17;;;;;;;13.50;1.63;;;8.80;98.00;;;;;;5058116;28;20452;-72
2020/12/05 06:44:42;;;;;;;6.80;1.00;;;8.80;98.00;;;;;;5057769;28;20028;-72
2020/12/05 06:47:21;;;;;;;9.18;1.63;;;8.90;98.00;;;;;;5056847;28;20029;-73
2020/12/05 06:49:51;;;;;;;11.43;1.60;;;8.80;98.00;;;;;;5056774;28;20028;-73
2020/12/05 06:52:32;;;;;;;8.70;1.20;;;8.80;98.00;;;;;;5057492;28;20033;-73
2020/12/05 06:55:04;;;;;;;12.50;1.33;;;8.80;98.00;;;;;;5057679;28;20414;-73
2020/12/05 06:57:31;;;;;;;8.05;1.13;;;8.80;98.00;;;;;;5057634;28;20032;-72
2020/12/05 07:00:23;;;;;;;14.00;1.52;;;8.90;98.00;;;;;;5057826;28;20021;-72
2020/12/05 07:02:53;;;;;;;13.05;1.48;;;8.90;98.00;;;;;;5039502;28;20029;-72
2020/12/05 07:05:23;;;;;;;276.35;20.85;;;8.90;98.00;;;;;;5057406;28;20040;-72
2020/12/05 07:07:51;;;;;;;89.72;6.93;;;8.90;98.00;;;;;;5057642;28;20298;-72
2020/12/05 07:10:20;;;;;;;152.40;11.38;;;8.90;98.00;;;;;;5057457;28;20028;-72
2020/12/05 07:12:46;;;;;;;170.07;11.60;;;9.00;98.00;;;;;;5057305;28;20052;-72
2020/12/05 07:15:21;;;;;;;16.35;1.60;;;8.90;98.00;;;;;;5057335;28;20036;-72
2020/12/05 07:17:47;;;;;;;13.43;1.63;;;8.90;98.00;;;;;;5056184;28;20489;-72
2020/12/05 07:20:13;;;;;;;12.80;1.55;;;9.00;98.00;;;;;;5056989;28;20033;-73
2020/12/05 07:22:39;;;;;;;10.90;1.42;;;9.00;98.00;;;;;;5057175;28;20316;-73
2020/12/05 07:25:05;;;;;;;11.73;1.40;;;8.90;98.00;;;;;;5039234;28;20052;-73
2020/12/05 07:27:31;;;;;;;13.95;1.77;;;8.90;98.00;;;;;;5057061;28;20317;-73
2020/12/05 07:29:56;;;;;;;14.63;1.40;;;8.90;98.00;;;;;;5057090;28;20094;-72
2020/12/05 07:32:22;;;;;;;10.52;1.65;;;9.00;98.00;;;;;;5057038;28;20025;-73
2020/12/05 07:34:48;;;;;;;462.90;34.80;;;9.00;98.00;;;;;;5056883;28;20028;-72
2020/12/05 07:37:28;;;;;;;510.92;34.60;;;9.10;98.00;;;;;;5056914;28;20058;-72
2020/12/05 07:39:56;;;;;;;419.70;28.83;;;9.10;98.00;;;;;;5057031;28;20025;-73
2020/12/05 07:42:22;;;;;;;370.95;22.73;;;9.10;98.00;;;;;;5056846;28;20032;-72
2020/12/05 07:44:51;;;;;;;387.10;20.23;;;9.10;98.00;;;;;;5056705;28;20397;-72
2020/12/05 07:47:21;;;;;;;232.48;12.02;;;9.20;98.00;;;;;;5055708;28;20028;-72
2020/12/05 07:49:54;;;;;;;941.42;71.82;;;9.20;98.00;;;;;;5057091;28;20025;-72
2020/12/05 07:52:21;;;;;;;783.63;51.33;;;9.10;98.00;;;;;;5056707;28;20033;-72
2020/12/05 07:55:00;;;;;;;942.63;64.53;;;9.20;98.00;;;;;;5056623;28;20098;-72
2020/12/05 07:57:30;;;;;;;206.77;11.95;;;9.30;98.00;;;;;;5056830;28;20040;-73
2020/12/05 08:00:14;;;;;;;380.10;23.88;;;9.40;98.00;;;;;;5057015;28;20035;-73
2020/12/05 08:02:58;;;;;;;26.23;2.00;;;9.40;98.00;;;;;;5055540;28;20025;-73
2020/12/05 08:05:57;;;;;;;412.60;27.27;;;9.40;98.00;;;;;;5056547;28;20021;-73
2020/12/05 08:08:27;;;;;;;387.98;25.05;;;9.40;98.00;;;;;;5056551;28;20044;-73
2020/12/05 08:11:03;;;;;;;10.60;1.85;;;9.40;98.00;;;;;;5056863;28;20021;-73
2020/12/05 08:13:30;;;;;;;189.43;13.70;;;9.40;98.00;;;;;;5056477;28;20262;-73
2020/12/05 08:16:04;;;;;;;30.13;1.80;;;9.40;98.00;;;;;;5056790;28;20029;-73
2020/12/05 08:18:33;;;;;;;107.20;8.25;;;9.40;98.00;;;;;;5056423;28;20043;-73
2020/12/05 08:21:04;;;;;;;596.83;40.88;;;9.40;98.00;;;;;;5056404;28;20325;-73
2020/12/05 08:23:40;;;;;;;744.45;55.28;;;9.40;98.00;;;;;;5056299;28;20104;-74
2020/12/05 08:26:14;;;;;;;545.90;35.03;;;9.30;98.00;;;;;;5038617;28;20041;-74
2020/12/05 08:28:46;;;;;;;489.20;30.85;;;9.30;98.00;;;;;;5056351;28;20021;-74
2020/12/05 08:31:13;;;;;;;629.28;40.28;;;9.30;98.00;;;;;;5056429;28;20021;-74
2020/12/05 08:33:52;;;;;;;400.77;19.63;;;9.30;98.00;;;;;;5059578;28;20032;-74
2020/12/05 08:36:21;;;;;;;59.50;4.13;;;9.40;98.00;;;;;;5042644;28;20097;-74
2020/12/05 08:38:48;;;;;;;6.82;1.17;;;9.40;98.00;;;;;;5060276;28;20029;-74
2020/12/05 08:41:14;;;;;;;7.85;1.10;;;9.50;98.00;;;;;;5060180;28;20020;-74
2020/12/05 08:43:40;;;;;;;16.13;1.38;;;9.50;98.00;;;;;;5060131;28;20417;-73
2020/12/05 08:46:16;;;;;;;373.52;19.08;;;9.40;98.00;;;;;;5060181;28;20031;-73
2020/12/05 08:48:58;;;;;;;8.70;1.30;;;9.40;98.00;;;;;;5042376;28;20102;-74
2020/12/05 08:51:30;;;;;;;19.20;1.58;;;9.40;98.00;;;;;;5060276;28;20321;-74
2020/12/05 08:54:08;;;;;;;40.92;4.22;;;9.40;98.00;;;;;;5059974;28;20044;-74
2020/12/05 08:56:33;;;;;;;14.15;1.23;;;9.40;98.00;;;;;;5060019;28;20021;-74
2020/12/05 08:58:59;;;;;;;189.77;13.10;;;9.50;98.00;;;;;;5060203;28;20081;-73
2020/12/05 09:01:42;;;;;;;31.40;2.05;;;9.60;98.00;;;;;;5059849;28;20024;-74
2020/12/05 09:04:11;;;;;;;544.05;43.85;;;9.70;98.00;;;;;;5059873;28;20320;-73
2020/12/05 09:06:40;;;;;;;740.90;57.75;;;9.70;98.00;;;;;;5059758;28;20029;-74
2020/12/05 09:09:07;;;;;;;688.58;45.47;;;9.80;98.00;;;;;;5059720;28;20056;-74
2020/12/05 09:11:33;;;;;;;735.92;53.38;;;9.80;98.00;;;;;;5059660;28;20413;-74
2020/12/05 09:13:59;;;;;;;918.17;56.20;;;9.90;98.00;;;;;;5059594;28;20033;-73
2020/12/05 09:16:34;;;;;;;1038.63;72.63;;;10.00;98.00;;;;;;5059914;28;20368;-74
2020/12/05 09:19:06;;;;;;;526.10;46.10;;;10.20;98.00;;;;;;5059657;28;20040;-73
2020/12/05 09:21:35;;;;;;;845.40;74.38;;;10.20;98.00;;;;;;5059604;28;20114;-73
2020/12/05 09:24:05;;;;;;;810.05;72.65;;;10.20;98.00;;;;;;5041519;28;20024;-74
2020/12/05 09:26:32;;;;;;;563.90;47.15;;;10.20;98.00;;;;;;5059393;28;20043;-74
2020/12/05 09:28:58;;;;;;;736.55;63.30;;;10.30;98.00;;;;;;5058956;28;20100;-74
2020/12/05 09:31:24;;;;;;;689.55;58.58;;;10.30;98.00;;;;;;5059411;28;20033;-74
2020/12/05 09:33:50;;;;;;;843.63;73.05;;;10.40;98.00;;;;;;5058161;28;20029;-74
2020/12/05 09:36:16;;;;;;;960.28;67.75;;;10.40;98.00;;;;;;5059378;28;20051;-73
2020/12/05 09:38:41;;;;;;;756.95;55.75;;;10.40;98.00;;;;;;5059174;28;20029;-74
2020/12/05 09:41:12;;;;;;;557.65;44.92;;;10.40;98.00;;;;;;5059085;28;20433;-74
2020/12/05 09:43:41;;;;;;;671.75;55.15;;;10.40;98.00;;;;;;5058534;28;20021;-74
2020/12/05 09:46:06;;;;;;;499.27;48.67;;;10.40;98.00;;;;;;5059277;28;20029;-74
2020/12/05 09:48:32;;;;;;;20.55;2.50;;;10.50;98.00;;;;;;5059008;28;20032;-74
2020/12/05 09:51:01;;;;;;;16.15;2.33;;;10.40;98.00;;;;;;5058989;28;20485;-73
2020/12/05 09:53:26;;;;;;;16.63;2.97;;;10.40;98.00;;;;;;5058858;28;20142;-73
2020/12/05 09:55:52;;;;;;;227.68;18.95;;;10.40;98.00;;;;;;5041168;28;20057;-74
2020/12/05 09:58:18;;;;;;;36.42;2.95;;;10.40;98.00;;;;;;5058796;28;20063;-73
2020/12/05 10:00:43;;;;;;;22.27;2.60;;;10.30;98.00;;;;;;5059005;28;20025;-74
2020/12/05 10:03:09;;;;;;;127.63;11.80;;;10.30;98.00;;;;;;5058699;28;20029;-74
2020/12/05 10:05:35;;;;;;;411.48;41.38;;;10.30;98.00;;;;;;5057218;28;20498;-74
2020/12/05 10:08:01;;;;;;;141.95;10.98;;;10.40;98.00;;;;;;5070478;28;20025;-73
2020/12/05 10:10:27;;;;;;;247.07;20.92;;;10.40;98.00;;;;;;5061174;28;20025;-73
2020/12/05 10:13:00;;;;;;;42.40;3.33;;;10.40;98.00;;;;;;5058543;28;20029;-73
2020/12/05 10:15:25;;;;;;;130.05;12.32;;;10.40;98.00;;;;;;5058557;28;20029;-73
2020/12/05 10:17:51;;;;;;;619.72;51.33;;;10.40;98.00;;;;;;5058411;28;20040;-74
2020/12/05 10:20:17;;;;;;;833.70;63.42;;;10.40;98.00;;;;;;5058434;28;20368;-74
2020/12/05 10:22:42;;;;;;;206.52;14.98;;;10.50;98.00;;;;;;5040617;28;20056;-74
2020/12/05 10:25:08;;;;;;;851.17;68.57;;;10.50;98.00;;;;;;5040420;28;20045;-74
2020/12/05 10:27:34;;;;;;;793.90;66.00;;;10.40;98.00;;;;;;5058235;28;20021;-74
2020/12/05 10:29:59;;;;;;;794.95;61.53;;;10.40;98.00;;;;;;5058687;28;20036;-74
2020/12/05 10:32:25;;;;;;;807.63;58.42;;;10.40;98.00;;;;;;5040463;28;20068;-73
2020/12/05 10:34:51;;;;;;;693.38;49.22;;;10.40;98.00;;;;;;5058023;28;20052;-74
2020/12/05 10:37:17;;;;;;;794.05;61.70;;;10.40;98.00;;;;;;5058044;28;20388;-74
2020/12/05 10:39:42;;;;;;;827.20;61.05;;;10.40;98.00;;;;;;5040287;28;20024;-74
2020/12/05 10:42:08;;;;;;;1121.60;80.03;;;10.50;98.00;;;;;;5057969;28;20052;-74
2020/12/05 10:44:34;;;;;;;1145.50;85.32;;;10.50;98.00;;;;;;5057918;28;20363;-74
2020/12/05 10:46:59;;;;;;;886.88;68.78;;;10.50;98.00;;;;;;5058374;28;20051;-74
2020/12/05 10:49:28;;;;;;;796.45;63.75;;;10.50;98.00;;;;;;5057868;28;20436;-74
2020/12/05 10:51:54;;;;;;;993.35;80.40;;;10.50;98.00;;;;;;5057766;28;20036;-74
2020/12/05 10:54:19;;;;;;;800.58;64.15;;;10.50;98.00;;;;;;5057197;28;20025;-74
2020/12/05 10:56:45;;;;;;;537.10;37.75;;;10.50;98.00;;;;;;5057371;28;20037;-74
2020/12/05 10:59:11;;;;;;;760.50;57.70;;;10.50;98.00;;;;;;5057661;28;20405;-74
2020/12/05 11:01:36;;;;;;;948.50;70.15;;;10.50;98.00;;;;;;5057534;28;20021;-74
2020/12/05 11:04:02;;;;;;;907.22;68.55;;;10.50;98.00;;;;;;5057479;28;20409;-74
2020/12/05 11:06:28;;;;;;;994.85;73.22;;;10.50;98.00;;;;;;5057477;28;20409;-74
2020/12/05 11:08:57;;;;;;;833.97;61.60;;;10.60;98.00;;;;;;5039792;28;20024;-74
2020/12/05 11:11:25;;;;;;;934.35;68.15;;;10.60;98.00;;;;;;5039979;28;20037;-75
2020/12/05 11:13:51;;;;;;;1097.65;80.85;;;10.50;98.00;;;;;;5057363;28;20321;-74
2020/12/05 11:16:21;;;;;;;1257.80;86.35;;;10.60;98.00;;;;;;5057675;28;20029;-75
2020/12/05 11:18:48;;;;;;;761.75;50.70;;;10.60;98.00;;;;;;5057414;28;20035;-74
2020/12/05 11:21:14;;;;;;;811.28;55.63;;;10.60;98.00;;;;;;5057138;28;20035;-74
2020/12/05 11:23:39;;;;;;;710.53;48.47;;;10.50;98.00;;;;;;5057145;28;20071;-74
2020/12/05 11:26:05;;;;;;;868.13;60.10;;;10.60;98.00;;;;;;5056985;28;20126;-74
2020/12/05 11:28:31;;;;;;;1072.13;68.18;;;10.60;98.00;;;;;;5057109;28;20025;-74
2020/12/05 11:30:56;;;;;;;991.92;62.92;;;10.60;98.00;;;;;;5057106;28;20110;-74
2020/12/05 11:33:22;;;;;;;520.33;32.22;;;10.60;98.00;;;;;;5057054;28;20071;-74
2020/12/05 11:35:48;;;;;;;627.08;36.10;;;10.50;98.00;;;;;;5057463;28;20328;-75
2020/12/05 11:38:14;;;;;;;850.97;53.22;;;10.50;98.00;;;;;;5057011;28;20036;-74
2020/12/05 11:40:39;;;;;;;746.33;43.13;;;10.50;98.00;;;;;;5056934;28;20432;-74
2020/12/05 11:43:05;;;;;;;898.90;58.58;;;10.50;98.00;;;;;;5056883;28;20023;-74
2020/12/05 11:45:31;;;;;;;82.35;6.40;;;10.50;98.00;;;;;;5055681;28;20108;-74
2020/12/05 11:47:58;;;;;;;865.15;63.53;;;10.50;98.00;;;;;;5055734;28;20117;-74
2020/12/05 11:50:24;;;;;;;949.20;69.00;;;10.40;98.00;;;;;;5038112;28;20049;-74
2020/12/05 11:52:50;;;;;;;749.15;57.60;;;10.50;98.00;;;;;;5038998;28;20408;-74
2020/12/05 11:55:18;;;;;;;987.40;74.22;;;10.50;98.00;;;;;;5056928;28;20308;-74
2020/12/05 11:57:46;;;;;;;748.22;59.53;;;10.40;98.00;;;;;;5056500;28;20025;-74
2020/12/05 12:00:13;;;;;;;796.90;57.70;;;10.40;98.00;;;;;;5038320;28;20322;-74
2020/12/05 12:02:39;;;;;;;477.00;41.63;;;10.40;98.00;;;;;;5056605;28;20025;-74
2020/12/05 12:05:06;;;;;;;627.13;48.70;;;10.40;98.00;;;;;;5056229;28;20029;-74
2020/12/05 12:07:36;;;;;;;315.20;24.95;;;10.40;98.00;;;;;;5038618;28;20017;-74
2020/12/05 12:10:07;;;;;;;514.13;42.05;;;10.40;98.00;;;;;;5039526;28;20025;-74
2020/12/05 12:12:36;;;;;;;418.50;37.38;;;10.40;98.00;;;;;;5054997;28;20057;-74
2020/12/05 12:15:03;;;;;;;511.55;43.17;;;10.50;98.00;;;;;;5055339;28;20324;-74
2020/12/05 12:17:28;;;;;;;537.15;45.40;;;10.50;98.00;;;;;;5056471;28;20017;-74
2020/12/05 12:19:54;;;;;;;452.58;41.92;;;10.50;98.00;;;;;;5038816;28;20043;-74
2020/12/05 12:22:24;;;;;;;317.77;25.55;;;10.50;98.00;;;;;;5056058;28;20155;-74
2020/12/05 12:24:50;;;;;;;424.50;40.33;;;10.50;98.00;;;;;;5056214;28;20073;-74
2020/12/05 12:27:15;;;;;;;642.67;62.13;;;10.50;98.00;;;;;;5056519;28;20096;-74
2020/12/05 12:29:41;;;;;;;588.63;53.05;;;10.50;98.00;;;;;;5056658;28;20021;-74
2020/12/05 12:32:07;;;;;;;592.88;47.75;;;10.50;98.00;;;;;;5056386;28;20029;-74
2020/12/05 12:34:32;;;;;;;31.52;3.33;;;10.50;98.00;;;;;;5056316;28;20033;-74
2020/12/05 12:37:03;;;;;;;104.35;9.60;;;10.50;98.00;;;;;;5056327;28;20048;-74
2020/12/05 12:39:28;;;;;;;27.13;2.92;;;10.50;98.00;;;;;;5056358;28;20025;-74
2020/12/05 12:41:54;;;;;;;22.02;3.33;;;10.50;98.00;;;;;;5056389;28;20029;-74
2020/12/05 12:44:20;;;;;;;34.13;3.00;;;10.50;98.00;;;;;;5056202;28;20104;-74
2020/12/05 12:47:38;;;;;;;37.33;3.55;;;10.60;98.00;;;;;;5056687;28;20048;-75
2020/12/05 12:49:37;;;;;;;19.05;3.10;;;10.50;98.00;;;;;;5045409;28;20032;-75
2020/12/05 12:52:07;;;;;;;30.58;3.35;;;10.50;98.00;;;;;;5056176;28;20436;-74
2020/12/05 12:54:34;;;;;;;24.88;3.78;;;10.60;98.00;;;;;;5038465;28;20364;-74